Portada
METAR-TAF:

METAR-TAF

Aeropuertos :

Aeropuerto de Santiago de Compostela

Santiago de Compostela, España

latitud: 42-54N, longitud: 008-26W, altitud: 370 m

Observación

El informe se hizo hace 38 minutos, a las 17:00 UTC
Viento 9 kt del norte-noreste, variando entre norte-noroeste y este-noreste
Temperatura 23°C
Humedad 61%
Presión 1024 hPa
Visibilidad 10 km o más
sin nubes por debajo de 1500 m y sin presencia de cumulonimbus.

METAR: LEST 261700Z 02009KT 330V070 CAVOK 23/15 Q1024 NOSIG

Hora: 19:38 (17:38 UTC)

Pronóstico

El informe se hizo hace 38 minutos, a las 17:00 UTC
Pronóstico válido del 26 a las 18 UTC al 27 a las 18 UTC
Viento 8 kt del noreste
Visibilidad 10 km o más
sin nubes por debajo de 1500 m y sin presencia de cumulonimbus.
Probabilidad 30% :
Temporalmente
del 27 a las 03 UTC al 27 a las 07 UTC
Visibilidad: 3000 m
neblina, niebla en bancos

TAF: LEST 261700Z 2618/2718 04008KT CAVOK TX28/2714Z TN10/2705Z PROB30 TEMPO 2703/2707 3000 BR BCFG

Observaciones y pronósticos meteorológicos de más de 4000 aeropuertos (mensajes METAR y TAF).

Los puntos amarillos y rojos representan las estaciones disponibles.

Ponga el ratón en el punto deseado para ver el nombre de la estación.

Haga clic para ver las observaciones y los pronósticos meteorológicos.

Para cambiar el mapa : haga clic en los botones verdes con una cruz de color negro para hacer un zoom, en el botón verde con un guión para alejar o en las flechas verdes para mapas adyacentes.


METAR-TAF: